ADDS METAR Data INFO
IDs: Format: Raw Decoded Include TAF

Data at: 1155 UTC 25 Jun 2018

KHOU 251153Z 18005KT 10SM FEW025 SCT250 27/26 A2996 RMK AO2 SLP150 T02670256 10272 20261 51011
KHOU 251053Z 00000KT 10SM FEW022 SCT250 27/25 A2996 RMK AO2 SLP149 T02670250
KHOU 250953Z 16009KT 10SM FEW022 SCT250 27/26 A2994 RMK AO2 SLP141 T02720256
KHOU 250853Z 16008KT 10SM FEW020 SCT250 27/25 A2993 RMK AO2 SLP139 T02720250 58006
KHOU 250753Z 16008KT 10SM SCT250 27/25 A2994 RMK AO2 SLP141 T02720250
KHOU 250653Z 15007KT 10SM BKN250 27/25 A2995 RMK AO2 SLP145 T02720250
KHOU 250553Z 15008KT 10SM BKN250 27/25 A2995 RMK AO2 SLP145 T02720250 10306 20272 403330256 51007
KHOU 250453Z 15008KT 10SM FEW020 SCT250 27/25 A2995 RMK AO2 SLP145 T02720250
KHOU 250353Z 15007KT 10SM FEW020 BKN250 27/25 A2994 RMK AO2 SLP141 T02720250
KHOU 250253Z 16006KT 10SM FEW020 BKN250 28/25 A2993 RMK AO2 SLP138 T02780250 53013
KHOU 250153Z 15007KT 10SM SCT023 BKN250 28/24 A2992 RMK AO2 SLP134 T02830244
KHOU 250053Z 15014KT 10SM SCT030 SCT250 29/24 A2989 RMK AO2 SLP126 T02890239
KHOU 242353Z 17014KT 10SM FEW032 SCT250 31/23 A2989 RMK AO2 SLP126 T03060228 10333 20306 55005
KHOU 242253Z 17014G21KT 10SM SCT035 BKN250 31/24 A2989 RMK AO2 SLP125 T03110244
KHOU 242153Z 17012G22KT 10SM SCT037 BKN250 32/24 A2990 RMK AO2 SLP128 T03170244
KHOU 242053Z 16013G20KT 10SM SCT035 BKN250 32/26 A2991 RMK AO2 SLP130 T03220256 56008
KHOU 241953Z 15014G22KT 10SM SCT035 BKN250 33/24 A2991 RMK AO2 SLP133 CB DSNT SE T03280244
KHOU 241853Z 17014KT 10SM BKN034 BKN046 BKN250 33/26 A2992 RMK AO2 SLP135 T03280261
KHOU 241753Z 17011KT 10SM SCT038 BKN250 32/24 A2993 RMK AO2 SLP139 T03220244 10328 20256 51008
KHOU 241653Z 18010KT 10SM SCT038 BKN048 BKN250 32/26 A2993 RMK AO2 SLP138 T03220256
KHOU 241553Z 21009KT 10SM FEW031 SCT039 BKN049 BKN250 31/25 A2991 RMK AO2 SLP133 T03110250
KHOU 241453Z 19013G19KT 10SM SCT029 BKN250 31/25 A2991 RMK AO2 SLP130 T03060250 53007
KHOU 241353Z 19011KT 10SM SCT020 SCT026 BKN250 29/26 A2989 RMK AO2 SLP126 T02940261
KHOU 241253Z 17006KT 10SM SCT020 SCT028 28/26 A2988 RMK AO2 SLP121 T02830261
KHOU 241153Z 15003KT 9SM FEW018 SCT026 SCT036 BKN250 26/26 A2988 RMK AO2 SLP124 T02560256 10272 20256 55001
KHOU 241053Z 17003KT 10SM FEW025 SCT250 26/26 A2988 RMK AO2 SLP122 T02610256
KHOU 240953Z 17005KT 10SM FEW020 SCT250 26/26 A2988 RMK AO2 SLP120 T02610256
KHOU 240853Z 18006KT 10SM FEW020 SCT250 27/26 A2989 RMK AO2 SLP124 T02670256 51002
KHOU 240753Z 16007KT 10SM FEW018 SCT250 27/26 A2988 RMK AO2 SLP121 T02720261
KHOU 240653Z 18005KT 10SM SCT020 SCT035 27/26 A2991 RMK AO2 SLP131 T02720256
KHOU 240553Z 17006KT 10SM FEW025 SCT250 27/26 A2988 RMK AO2 SLP122 T02720261 10306 20267 403390239 53014
KHOU 240453Z 16008KT 10SM FEW020 SCT250 27/26 A2986 RMK AO2 SLP114 T02720261
KHOU 240353Z 16006KT 10SM FEW020 SCT250 27/26 A2986 RMK AO2 SLP114 T02720261
KHOU 240253Z 16006KT 10SM FEW020 SCT250 27/26 A2984 RMK AO2 SLP108 T02720261 53008
KHOU 240153Z 16008KT 10SM FEW022 SCT250 28/26 A2982 RMK AO2 SLP103 T02830261
KHOU 240053Z 17011KT 10SM FEW028 SCT250 29/26 A2981 RMK AO2 SLP100 T02940256